Time;durP1;ratioP1;P1;durP2;ratioP2;P2;SDS_P1;SDS_P2;PMS_P1;PMS_P2;Temp;Humidity;BMP_temperature;BMP_pressure;BME280_temperature;BME280_humidity;BME280_pressure;Samples;Min_cycle;Max_cycle;Signal;HPM_P1;HPM_P2
2022/12/08 00:00:03;;;;;;;16.50;13.53;;;3.40;99.90;;;;;;5024695;28;20034;-81
2022/12/08 00:02:38;;;;;;;17.58;14.00;;;3.40;99.90;;;;;;5033540;28;20032;-83
2022/12/08 00:10:34;;;;;;;18.50;14.93;;;3.50;99.90;;;;;;5026363;28;20395;-83
2022/12/08 00:13:01;;;;;;;17.42;13.43;;;3.50;99.90;;;;;;5029762;28;20416;-83
2022/12/08 00:15:27;;;;;;;15.35;10.70;;;3.50;99.90;;;;;;4995548;28;20036;-83
2022/12/08 00:17:53;;;;;;;15.38;10.90;;;3.50;99.90;;;;;;5004860;28;20076;-83
2022/12/08 00:20:20;;;;;;;18.52;13.80;;;3.50;99.90;;;;;;5033781;28;20041;-82
2022/12/08 00:22:46;;;;;;;17.65;13.90;;;3.60;99.90;;;;;;5012867;28;20040;-83
2022/12/08 00:25:13;;;;;;;14.63;11.27;;;3.60;99.90;;;;;;5040841;28;20041;-83
2022/12/08 00:27:39;;;;;;;26.45;14.15;;;3.60;99.90;;;;;;5032048;28;20021;-83
2022/12/08 00:30:06;;;;;;;17.37;13.23;;;3.60;99.90;;;;;;5029896;28;20048;-83
2022/12/08 00:32:33;;;;;;;21.33;15.73;;;3.60;99.90;;;;;;5037526;28;20060;-83
2022/12/08 00:34:59;;;;;;;19.08;13.25;;;3.60;99.90;;;;;;5030094;28;20033;-83
2022/12/08 00:37:25;;;;;;;18.30;13.40;;;3.60;99.90;;;;;;5025504;28;20408;-82
2022/12/08 00:39:52;;;;;;;21.77;13.68;;;3.60;99.90;;;;;;5026227;28;20029;-83
2022/12/08 00:42:18;;;;;;;15.98;12.77;;;3.60;99.90;;;;;;5025068;28;20044;-83
2022/12/08 00:44:45;;;;;;;18.30;13.68;;;3.60;99.90;;;;;;5030337;28;20037;-83
2022/12/08 00:47:12;;;;;;;15.50;12.25;;;3.60;99.90;;;;;;5011097;28;20471;-83
2022/12/08 00:49:39;;;;;;;16.23;12.90;;;3.60;99.90;;;;;;5027512;28;20048;-83
2022/12/08 00:52:06;;;;;;;12.30;10.23;;;3.60;99.90;;;;;;5031484;28;20037;-82
2022/12/08 00:54:32;;;;;;;15.93;12.07;;;3.60;99.90;;;;;;5050389;28;20480;-83
2022/12/08 00:56:58;;;;;;;12.07;10.02;;;3.70;99.90;;;;;;5049222;28;20025;-82
2022/12/08 00:59:25;;;;;;;16.55;12.63;;;3.70;99.90;;;;;;5033330;28;20049;-83
2022/12/08 01:01:51;;;;;;;15.15;10.80;;;3.70;99.90;;;;;;5032696;28;20048;-82
2022/12/08 01:04:18;;;;;;;18.38;13.70;;;3.70;99.90;;;;;;5028819;28;20041;-83
2022/12/08 01:06:45;;;;;;;15.90;10.03;;;3.70;99.90;;;;;;5035752;28;20033;-82
2022/12/08 01:09:14;;;;;;;14.65;11.75;;;3.80;99.90;;;;;;5030440;28;20411;-82
2022/12/08 01:11:43;;;;;;;19.73;13.63;;;3.80;99.90;;;;;;5027889;28;20494;-83
2022/12/08 01:14:12;;;;;;;14.23;10.73;;;3.80;99.90;;;;;;5027584;28;20411;-82
2022/12/08 01:16:40;;;;;;;13.63;10.02;;;3.90;99.90;;;;;;5025916;28;20041;-83
2022/12/08 01:19:08;;;;;;;13.43;9.48;;;3.90;99.90;;;;;;5031989;28;20455;-83
2022/12/08 01:21:34;;;;;;;16.92;12.63;;;3.90;99.90;;;;;;5028516;28;20112;-82
2022/12/08 01:24:01;;;;;;;16.80;11.15;;;4.00;99.90;;;;;;5017850;28;20033;-82
2022/12/08 01:26:28;;;;;;;16.80;12.60;;;4.00;99.90;;;;;;5049426;28;20049;-83
2022/12/08 01:28:54;;;;;;;12.00;8.82;;;4.00;99.90;;;;;;5028116;28;20071;-83
2022/12/08 01:31:21;;;;;;;11.80;10.25;;;4.00;99.90;;;;;;5037274;28;20492;-83
2022/12/08 01:33:48;;;;;;;15.07;11.98;;;4.10;99.90;;;;;;4994844;28;20483;-82
2022/12/08 01:36:22;;;;;;;11.85;9.05;;;4.00;99.90;;;;;;5026901;28;20571;-82
2022/12/08 01:38:48;;;;;;;10.23;9.20;;;4.10;99.90;;;;;;5032697;28;20504;-82
2022/12/08 01:41:17;;;;;;;13.63;11.57;;;4.10;99.90;;;;;;5022346;28;20046;-83
2022/12/08 01:44:07;;;;;;;21.88;14.80;;;4.10;99.90;;;;;;5023502;28;20029;-84
2022/12/08 01:46:39;;;;;;;21.30;13.53;;;4.10;99.90;;;;;;5027618;28;20048;-83
2022/12/08 01:49:17;;;;;;;16.88;14.32;;;4.10;99.90;;;;;;5039502;28;20052;-84
2022/12/08 01:52:20;;;;;;;16.98;14.00;;;4.10;99.90;;;;;;5021366;28;20037;-85
2022/12/08 01:54:58;;;;;;;;;;;4.20;99.90;;;;;;5054444;28;20037;-85
2022/12/08 01:57:38;;;;;;;15.32;13.63;;;4.20;99.90;;;;;;5020361;28;19909;-83
2022/12/08 02:00:08;;;;;;;20.25;15.55;;;4.20;99.90;;;;;;5029174;28;20692;-83
2022/12/08 02:02:46;;;;;;;25.27;18.20;;;4.20;99.90;;;;;;5047381;28;20392;-83
2022/12/08 02:05:13;;;;;;;30.88;25.35;;;4.20;99.90;;;;;;5035052;28;20057;-83
2022/12/08 02:07:39;;;;;;;28.58;22.75;;;4.20;99.90;;;;;;5025287;28;20052;-82
2022/12/08 02:10:06;;;;;;;31.05;20.73;;;4.20;99.90;;;;;;5034522;28;20043;-82
2022/12/08 02:12:33;;;;;;;27.42;21.02;;;4.20;99.90;;;;;;5042777;28;20041;-83
2022/12/08 02:14:59;;;;;;;28.52;21.25;;;4.20;99.90;;;;;;5023468;28;20047;-84
2022/12/08 02:17:48;;;;;;;20.58;17.23;;;4.20;99.90;;;;;;5014285;28;20527;-84
2022/12/08 02:20:44;;;;;;;21.20;18.75;;;4.30;99.90;;;;;;4997971;28;20045;-83
2022/12/08 02:23:33;;;;;;;25.00;19.10;;;4.30;99.90;;;;;;5035435;28;20380;-82
2022/12/08 02:26:10;;;;;;;24.27;18.88;;;4.30;99.90;;;;;;5031666;28;20144;-83
2022/12/08 02:29:07;;;;;;;27.75;21.27;;;4.30;99.90;;;;;;5041276;28;20037;-83
2022/12/08 02:31:57;;;;;;;28.13;20.48;;;4.30;99.90;;;;;;5050965;28;20589;-82
2022/12/08 02:34:36;;;;;;;31.30;23.10;;;4.30;99.90;;;;;;5022148;28;20024;-82
2022/12/08 02:37:17;;;;;;;21.13;16.38;;;4.30;99.90;;;;;;5019198;28;20055;-84
2022/12/08 02:40:02;;;;;;;25.60;19.65;;;4.20;99.90;;;;;;5027528;28;20025;-82
2022/12/08 02:42:36;;;;;;;22.63;18.55;;;4.20;99.90;;;;;;5041333;28;20562;-84
2022/12/08 02:45:17;;;;;;;18.30;15.25;;;4.20;99.90;;;;;;5028574;28;20026;-83
2022/12/08 02:47:44;;;;;;;22.42;16.73;;;4.20;99.90;;;;;;5031227;28;20040;-81
2022/12/08 02:50:11;;;;;;;25.63;18.23;;;4.20;99.90;;;;;;5054511;28;20495;-83
2022/12/08 02:52:43;;;;;;;26.40;19.50;;;4.30;99.90;;;;;;5029060;28;20750;-82
2022/12/08 02:55:19;;;;;;;25.45;19.15;;;4.20;99.90;;;;;;5029415;28;20502;-82
2022/12/08 02:58:17;;;;;;;20.88;16.90;;;4.30;99.90;;;;;;5014918;28;20049;-83
2022/12/08 03:01:08;;;;;;;21.23;17.92;;;4.20;99.90;;;;;;5031514;28;20029;-83
2022/12/08 03:04:08;;;;;;;24.60;19.67;;;4.20;99.90;;;;;;5040099;28;20093;-83
2022/12/08 03:06:57;;;;;;;19.25;15.13;;;4.20;99.90;;;;;;5043391;28;20080;-84
2022/12/08 03:09:32;;;;;;;21.67;18.40;;;4.20;99.90;;;;;;5048336;28;20044;-84
2022/12/08 03:12:10;;;;;;;28.42;18.48;;;4.20;99.90;;;;;;5019208;28;20508;-84
2022/12/08 03:14:41;;;;;;;23.17;18.30;;;4.20;99.90;;;;;;5043698;28;20038;-85
2022/12/08 03:17:09;;;;;;;24.30;17.27;;;4.20;99.90;;;;;;5014763;28;20057;-85
2022/12/08 03:19:38;;;;;;;19.75;15.90;;;4.20;99.90;;;;;;5030569;28;20029;-85
2022/12/08 03:22:06;;;;;;;21.53;16.33;;;4.30;99.90;;;;;;5018593;28;20706;-85
2022/12/08 03:24:37;;;;;;;19.33;15.57;;;4.30;99.90;;;;;;5055405;28;20034;-84
2022/12/08 03:27:08;;;;;;;20.40;15.70;;;4.30;99.90;;;;;;5047808;28;20033;-86
2022/12/08 03:29:35;;;;;;;23.48;18.20;;;4.30;99.90;;;;;;5029913;28;20038;-84
2022/12/08 03:32:33;;;;;;;24.05;17.77;;;4.30;99.90;;;;;;5003828;28;20064;-83
2022/12/08 03:35:04;;;;;;;23.10;18.05;;;4.30;99.90;;;;;;5030861;28;20044;-84
2022/12/08 03:37:34;;;;;;;19.58;15.05;;;4.30;99.90;;;;;;5028101;28;20060;-84
2022/12/08 03:40:03;;;;;;;19.75;14.93;;;4.30;99.90;;;;;;5029760;28;20040;-83
2022/12/08 03:42:29;;;;;;;19.27;15.20;;;4.40;99.90;;;;;;5023925;28;20041;-84
2022/12/08 03:44:56;;;;;;;20.48;16.70;;;4.30;99.90;;;;;;5017437;28;20042;-84
2022/12/08 03:47:22;;;;;;;18.85;12.40;;;4.40;99.90;;;;;;5024752;28;20403;-85
2022/12/08 03:49:49;;;;;;;19.50;15.70;;;4.40;99.90;;;;;;5033722;28;20056;-83
2022/12/08 03:52:15;;;;;;;21.00;14.48;;;4.30;99.90;;;;;;5011053;28;20052;-85
2022/12/08 03:54:41;;;;;;;18.58;13.73;;;4.30;99.90;;;;;;5012759;28;20033;-86
2022/12/08 03:57:08;;;;;;;19.33;14.52;;;4.30;99.90;;;;;;5024843;28;20052;-84
2022/12/08 03:59:34;;;;;;;20.17;15.35;;;4.30;99.90;;;;;;5034065;28;20044;-84
2022/12/08 04:02:00;;;;;;;16.55;13.05;;;4.30;99.90;;;;;;5029598;28;20033;-84
2022/12/08 04:04:27;;;;;;;16.65;11.77;;;4.30;99.90;;;;;;5012757;28;20108;-85
2022/12/08 04:06:53;;;;;;;16.30;13.05;;;4.30;99.90;;;;;;5030279;28;20044;-84
2022/12/08 04:09:20;;;;;;;13.23;10.18;;;4.30;99.90;;;;;;5029729;28;20037;-84
2022/12/08 04:11:46;;;;;;;12.88;10.98;;;4.30;99.90;;;;;;5037878;28;20041;-84
2022/12/08 04:14:13;;;;;;;13.75;10.18;;;4.30;99.90;;;;;;5028845;28;20033;-85
2022/12/08 04:16:39;;;;;;;14.25;9.70;;;4.30;99.90;;;;;;5024514;28;20053;-84
2022/12/08 04:19:06;;;;;;;12.48;8.90;;;4.30;99.90;;;;;;5028885;28;20037;-84
2022/12/08 04:21:33;;;;;;;11.38;8.25;;;4.30;99.90;;;;;;5027857;28;20025;-85
2022/12/08 04:23:59;;;;;;;9.52;8.45;;;4.30;99.90;;;;;;5028565;28;20025;-84
2022/12/08 04:26:25;;;;;;;11.27;9.32;;;4.20;99.90;;;;;;5051291;28;20044;-84
2022/12/08 04:28:52;;;;;;;9.57;7.65;;;4.30;99.90;;;;;;5025284;28;20025;-83
2022/12/08 04:31:18;;;;;;;9.07;7.50;;;4.20;99.90;;;;;;5053236;28;20033;-84
2022/12/08 04:33:44;;;;;;;8.30;6.95;;;4.30;99.90;;;;;;5029679;28;20100;-83
2022/12/08 04:36:11;;;;;;;7.47;6.15;;;4.30;99.90;;;;;;5027285;28;20144;-82
2022/12/08 04:38:37;;;;;;;7.82;5.40;;;4.30;99.90;;;;;;5013454;28;20063;-83
2022/12/08 04:41:04;;;;;;;5.65;4.95;;;4.30;99.90;;;;;;5027085;28;20044;-83
2022/12/08 04:43:30;;;;;;;5.82;5.30;;;4.30;99.90;;;;;;5051656;28;20415;-84
2022/12/08 04:45:56;;;;;;;5.88;3.85;;;4.20;99.90;;;;;;5028536;28;20037;-83
2022/12/08 04:48:23;;;;;;;5.07;3.50;;;4.20;99.90;;;;;;5035169;28;20123;-84
2022/12/08 04:50:50;;;;;;;6.40;3.78;;;4.20;99.90;;;;;;5031304;28;20496;-84
2022/12/08 04:53:16;;;;;;;5.32;3.75;;;4.20;99.90;;;;;;5028216;28;20053;-84
2022/12/08 04:55:44;;;;;;;4.25;3.50;;;4.20;99.90;;;;;;5028966;28;20036;-83
2022/12/08 04:58:15;;;;;;;4.80;3.20;;;4.10;99.90;;;;;;4993084;28;20403;-83
2022/12/08 05:00:42;;;;;;;5.68;3.97;;;4.10;99.90;;;;;;5044173;28;20477;-84
2022/12/08 05:03:09;;;;;;;7.47;5.40;;;4.10;99.90;;;;;;5028095;28;20037;-84
2022/12/08 05:05:35;;;;;;;4.25;3.85;;;4.10;99.90;;;;;;5044864;28;21161;-84
2022/12/08 05:08:01;;;;;;;5.78;4.70;;;4.10;99.90;;;;;;5037500;28;20025;-84
2022/12/08 05:10:28;;;;;;;4.60;4.15;;;4.10;99.90;;;;;;5046018;28;20488;-84
2022/12/08 05:12:54;;;;;;;6.15;5.40;;;4.10;99.90;;;;;;5027888;28;20492;-84
2022/12/08 05:15:20;;;;;;;6.82;6.00;;;4.10;99.90;;;;;;5024583;28;20053;-84
2022/12/08 05:17:47;;;;;;;5.50;5.00;;;4.10;99.90;;;;;;5027321;28;20800;-85
2022/12/08 05:20:13;;;;;;;6.47;5.88;;;4.10;99.90;;;;;;5043921;28;20056;-83
2022/12/08 05:22:39;;;;;;;7.63;5.32;;;4.10;99.90;;;;;;5011139;28;20045;-84
2022/12/08 05:25:06;;;;;;;7.68;6.82;;;4.10;99.90;;;;;;5057934;28;20044;-83
2022/12/08 05:27:33;;;;;;;10.10;8.68;;;4.10;99.90;;;;;;5043614;28;20041;-84
2022/12/08 05:29:59;;;;;;;9.90;8.93;;;4.10;99.90;;;;;;5055337;28;20029;-83
2022/12/08 05:32:26;;;;;;;9.02;7.82;;;4.10;99.90;;;;;;5042758;28;20049;-84
2022/12/08 05:34:52;;;;;;;10.15;8.60;;;4.10;99.90;;;;;;5036524;28;20040;-84
2022/12/08 05:37:19;;;;;;;9.18;8.27;;;4.10;99.90;;;;;;5020680;28;20063;-82
2022/12/08 05:39:45;;;;;;;8.57;7.63;;;4.10;99.90;;;;;;5028215;28;20033;-84
2022/12/08 05:42:11;;;;;;;11.63;9.40;;;4.20;99.90;;;;;;5034021;28;20516;-84
2022/12/08 05:44:38;;;;;;;10.20;9.02;;;4.20;99.90;;;;;;5038718;28;20026;-85
2022/12/08 05:47:05;;;;;;;10.47;9.53;;;4.20;99.90;;;;;;5052148;28;20036;-84
2022/12/08 05:49:31;;;;;;;11.50;10.30;;;4.20;99.90;;;;;;5028551;28;20494;-85
2022/12/08 05:51:58;;;;;;;10.68;8.75;;;4.20;99.90;;;;;;5009949;28;20491;-84
2022/12/08 05:54:24;;;;;;;10.80;9.48;;;4.20;99.90;;;;;;5022802;28;20037;-85
2022/12/08 05:56:50;;;;;;;9.00;8.10;;;4.10;99.90;;;;;;5037062;28;20036;-83
2022/12/08 05:59:17;;;;;;;8.60;7.72;;;4.10;99.90;;;;;;5043939;28;20040;-85
2022/12/08 06:01:43;;;;;;;7.32;6.45;;;4.10;99.90;;;;;;5033445;28;20036;-84
2022/12/08 06:04:10;;;;;;;5.20;4.68;;;4.10;99.90;;;;;;5039681;28;20038;-84
2022/12/08 06:06:37;;;;;;;7.82;5.32;;;4.10;99.90;;;;;;5026177;28;20056;-85
2022/12/08 06:09:04;;;;;;;4.90;3.90;;;4.10;99.90;;;;;;5022076;28;20511;-84
2022/12/08 06:11:32;;;;;;;6.30;4.82;;;4.10;99.90;;;;;;5015685;28;20041;-84
2022/12/08 06:13:58;;;;;;;4.65;3.83;;;4.00;99.90;;;;;;5015404;28;20053;-84
2022/12/08 06:16:26;;;;;;;4.10;3.55;;;4.00;99.90;;;;;;5014078;28;20100;-84
2022/12/08 06:18:53;;;;;;;4.57;3.85;;;4.00;99.90;;;;;;5030594;28;20046;-83
2022/12/08 06:21:19;;;;;;;4.88;3.13;;;4.00;99.90;;;;;;5026593;28;20037;-84
2022/12/08 06:23:52;;;;;;;4.85;2.53;;;4.00;99.90;;;;;;5037384;28;20044;-85
2022/12/08 06:26:19;;;;;;;3.88;2.70;;;4.00;99.90;;;;;;5027883;28;20045;-84
2022/12/08 06:28:46;;;;;;;3.60;2.40;;;3.90;99.90;;;;;;5015744;28;20037;-84
2022/12/08 06:31:17;;;;;;;5.40;3.40;;;3.90;99.90;;;;;;5029907;28;20048;-85
2022/12/08 06:33:44;;;;;;;2.85;2.38;;;3.90;99.90;;;;;;4997306;28;20414;-84
2022/12/08 06:36:12;;;;;;;6.40;2.63;;;3.90;99.90;;;;;;5025597;28;20431;-84
2022/12/08 06:38:39;;;;;;;3.40;2.40;;;3.90;99.90;;;;;;5045694;28;20037;-85
2022/12/08 06:41:06;;;;;;;3.67;2.58;;;3.90;99.90;;;;;;5021985;28;20147;-85
2022/12/08 06:43:32;;;;;;;3.90;2.75;;;3.90;99.90;;;;;;5040496;28;20044;-85
2022/12/08 06:46:00;;;;;;;4.82;2.75;;;3.90;99.90;;;;;;5025827;28;20491;-83
2022/12/08 06:48:26;;;;;;;3.97;1.80;;;3.90;99.90;;;;;;5011627;28;20527;-86
2022/12/08 06:50:52;;;;;;;2.30;1.65;;;3.90;99.90;;;;;;5047953;28;20064;-84
2022/12/08 06:53:19;;;;;;;3.30;1.25;;;3.80;99.90;;;;;;5024057;28;20523;-84
2022/12/08 06:55:50;;;;;;;3.72;1.40;;;3.80;99.90;;;;;;5042216;28;20052;-84
2022/12/08 06:58:17;;;;;;;4.47;1.23;;;3.70;99.90;;;;;;5029144;28;20040;-90
2022/12/08 07:00:44;;;;;;;3.70;0.90;;;3.70;99.90;;;;;;5031926;28;20037;-84
2022/12/08 07:03:11;;;;;;;1.70;0.98;;;3.70;99.90;;;;;;5034758;28;20025;-83
2022/12/08 07:05:38;;;;;;;2.42;1.00;;;3.70;99.90;;;;;;5027071;28;20029;-81
2022/12/08 07:08:07;;;;;;;2.28;1.25;;;3.70;99.90;;;;;;5011941;28;20033;-82
2022/12/08 07:10:33;;;;;;;2.78;1.55;;;3.70;99.90;;;;;;4995322;28;20037;-81
2022/12/08 07:13:00;;;;;;;2.42;1.75;;;3.70;99.90;;;;;;5027973;28;20041;-82
2022/12/08 07:15:26;;;;;;;3.75;2.08;;;3.60;99.90;;;;;;5031082;28;20540;-81
2022/12/08 07:17:53;;;;;;;3.80;2.38;;;3.60;99.90;;;;;;5033310;28;20053;-82
2022/12/08 07:20:19;;;;;;;3.20;1.93;;;3.60;99.90;;;;;;5020329;28;20029;-86
2022/12/08 07:22:52;;;;;;;1.98;1.33;;;3.70;99.90;;;;;;5043579;28;20491;-82
2022/12/08 07:25:19;;;;;;;2.63;1.80;;;3.60;99.90;;;;;;5007357;28;20049;-82
2022/12/08 07:27:46;;;;;;;2.50;1.80;;;3.60;99.90;;;;;;5011254;28;20037;-83
2022/12/08 07:30:13;;;;;;;3.08;1.98;;;3.60;99.90;;;;;;5028368;28;20026;-83
2022/12/08 07:32:40;;;;;;;4.80;2.17;;;3.70;99.90;;;;;;5026297;28;20054;-83
2022/12/08 07:35:07;;;;;;;3.33;1.77;;;3.60;99.90;;;;;;5044876;28;20037;-81
2022/12/08 07:37:34;;;;;;;4.43;2.73;;;3.60;99.90;;;;;;5027103;28;20060;-84
2022/12/08 07:40:00;;;;;;;4.68;3.00;;;3.60;99.90;;;;;;5006032;28;20623;-85
2022/12/08 07:42:27;;;;;;;3.38;1.85;;;3.60;99.90;;;;;;5027220;28;20479;-86
2022/12/08 07:44:53;;;;;;;4.38;2.28;;;3.60;99.90;;;;;;5039175;28;20060;-86
2022/12/08 07:47:19;;;;;;;4.10;2.22;;;3.60;99.90;;;;;;5050360;28;20048;-88
2022/12/08 07:49:46;;;;;;;3.60;2.75;;;3.70;99.90;;;;;;5017470;28;20029;-88
2022/12/08 07:52:12;;;;;;;3.70;2.88;;;3.60;99.90;;;;;;5032814;28;20037;-84
2022/12/08 07:54:38;;;;;;;4.40;2.83;;;3.60;99.90;;;;;;5044249;28;20045;-84
2022/12/08 07:57:05;;;;;;;3.03;2.17;;;3.60;99.90;;;;;;5022968;28;20033;-84
2022/12/08 07:59:32;;;;;;;3.05;2.10;;;3.60;99.90;;;;;;5010585;28;20043;-84
2022/12/08 08:01:58;;;;;;;6.78;4.05;;;3.60;99.90;;;;;;5026350;28;20037;-84
2022/12/08 08:04:25;;;;;;;4.85;2.72;;;3.60;99.90;;;;;;5033590;28;20045;-84
2022/12/08 08:06:51;;;;;;;6.17;3.70;;;3.60;99.90;;;;;;5007878;28;20045;-84
2022/12/08 08:09:17;;;;;;;4.57;3.22;;;3.60;99.90;;;;;;5002920;28;20056;-83
2022/12/08 08:11:44;;;;;;;3.00;1.92;;;3.70;99.90;;;;;;5009490;28;20040;-83
2022/12/08 08:14:11;;;;;;;5.40;1.92;;;3.70;99.90;;;;;;5011375;28;20045;-84
2022/12/08 08:16:37;;;;;;;3.65;2.22;;;3.70;99.90;;;;;;5018791;28;20539;-83
2022/12/08 08:19:03;;;;;;;3.45;2.05;;;3.70;99.90;;;;;;5037284;28;20034;-83
2022/12/08 08:21:30;;;;;;;4.75;2.05;;;3.70;99.90;;;;;;5023956;28;20468;-84
2022/12/08 08:23:56;;;;;;;3.45;2.08;;;3.70;99.90;;;;;;5015568;28;20364;-83
2022/12/08 08:26:22;;;;;;;2.70;1.90;;;3.70;99.90;;;;;;5025520;28;20290;-83
2022/12/08 08:28:49;;;;;;;1.70;1.08;;;3.70;99.90;;;;;;5014799;28;20040;-84
2022/12/08 08:31:15;;;;;;;2.67;1.60;;;3.80;99.90;;;;;;5026732;28;20491;-83
2022/12/08 08:33:41;;;;;;;3.13;1.73;;;3.80;99.90;;;;;;5028392;28;20126;-83
2022/12/08 08:36:09;;;;;;;2.55;1.98;;;3.80;99.90;;;;;;5017294;28;20419;-83
2022/12/08 08:38:38;;;;;;;2.08;1.42;;;3.80;99.90;;;;;;5017236;28;20305;-83
2022/12/08 08:41:09;;;;;;;3.15;2.20;;;3.80;99.90;;;;;;5009987;28;20029;-83
2022/12/08 08:43:36;;;;;;;4.53;3.05;;;3.80;99.90;;;;;;5013876;28;20144;-83
2022/12/08 08:46:04;;;;;;;3.42;2.60;;;3.80;99.90;;;;;;5023921;28;20041;-83
2022/12/08 08:48:31;;;;;;;2.65;1.85;;;3.80;99.90;;;;;;5026193;28;20032;-83
2022/12/08 08:51:04;;;;;;;4.63;2.28;;;3.80;99.90;;;;;;5024538;28;20029;-83
2022/12/08 08:53:31;;;;;;;3.92;2.05;;;3.90;99.90;;;;;;5024921;28;20381;-83
2022/12/08 08:55:58;;;;;;;3.38;2.63;;;3.90;99.90;;;;;;5044091;28;20025;-83
2022/12/08 08:58:24;;;;;;;6.57;3.57;;;3.90;99.90;;;;;;5025036;28;20365;-84
2022/12/08 09:00:51;;;;;;;3.03;2.47;;;3.90;99.90;;;;;;5023393;28;20075;-84
2022/12/08 09:03:17;;;;;;;4.95;3.22;;;4.00;99.90;;;;;;5022448;28;20028;-81
2022/12/08 09:05:44;;;;;;;6.03;3.20;;;4.00;99.90;;;;;;5027736;28;20030;-81
2022/12/08 09:08:10;;;;;;;5.00;3.40;;;4.00;99.90;;;;;;5023442;28;20033;-82
2022/12/08 09:10:37;;;;;;;4.43;3.03;;;4.00;99.90;;;;;;5016227;28;20041;-83
2022/12/08 09:13:03;;;;;;;6.53;3.63;;;4.10;99.90;;;;;;5037980;28;20044;-82
2022/12/08 09:15:29;;;;;;;5.90;4.45;;;4.10;99.90;;;;;;5026765;28;20060;-81
2022/12/08 09:17:56;;;;;;;4.40;2.80;;;4.10;99.90;;;;;;5015931;28;20049;-80
2022/12/08 09:20:22;;;;;;;4.15;2.83;;;4.10;99.90;;;;;;5032715;28;20029;-80
2022/12/08 09:22:48;;;;;;;3.30;2.33;;;4.10;99.90;;;;;;5041193;28;20063;-81
2022/12/08 09:25:15;;;;;;;4.18;2.28;;;4.10;99.90;;;;;;5027736;28;20040;-81
2022/12/08 09:27:41;;;;;;;2.50;1.92;;;4.10;99.90;;;;;;5023709;28;20061;-81
2022/12/08 09:30:08;;;;;;;3.85;2.10;;;4.10;99.90;;;;;;5027052;28;20038;-80
2022/12/08 09:32:34;;;;;;;4.83;2.83;;;4.10;99.90;;;;;;5024852;28;20036;-81
2022/12/08 09:35:00;;;;;;;2.28;1.50;;;4.20;99.90;;;;;;5026080;28;20033;-81
2022/12/08 09:37:27;;;;;;;3.92;2.92;;;4.20;99.90;;;;;;5045484;28;20032;-81
2022/12/08 09:39:53;;;;;;;3.60;2.40;;;4.20;99.90;;;;;;5052735;28;20025;-80
2022/12/08 09:42:41;;;;;;;3.65;2.50;;;4.20;99.90;;;;;;5042063;28;20041;-81
2022/12/08 09:45:13;;;;;;;4.72;3.08;;;4.20;99.90;;;;;;5009074;28;20041;-81
2022/12/08 09:47:44;;;;;;;4.17;3.13;;;4.20;99.90;;;;;;5034426;28;20029;-81
2022/12/08 09:50:29;;;;;;;3.92;3.03;;;4.20;99.90;;;;;;5006168;28;20037;-81
2022/12/08 09:53:17;;;;;;;6.05;4.03;;;4.30;99.90;;;;;;5038073;28;20439;-81
2022/12/08 09:55:50;;;;;;;5.03;3.45;;;4.30;99.90;;;;;;5025819;28;20052;-85
2022/12/08 09:58:54;;;;;;;7.13;5.40;;;4.30;99.90;;;;;;5009395;28;20032;-84
2022/12/08 10:01:22;;;;;;;7.55;5.20;;;4.30;99.90;;;;;;5037879;28;20048;-81
2022/12/08 10:03:49;;;;;;;11.95;7.85;;;4.20;99.90;;;;;;5032630;28;20048;-81
2022/12/08 10:06:30;;;;;;;8.90;5.43;;;4.20;99.90;;;;;;5023046;28;20037;-82
2022/12/08 10:09:20;;;;;;;8.48;5.70;;;4.20;99.90;;;;;;5051301;28;20479;-84
2022/12/08 10:11:57;;;;;;;6.53;5.43;;;4.30;99.90;;;;;;5036341;28;20022;-83
2022/12/08 10:14:39;;;;;;;9.35;5.10;;;4.20;99.90;;;;;;5006244;28;20508;-83
2022/12/08 10:17:24;;;;;;;4.97;3.88;;;4.20;99.90;;;;;;5004850;28;20072;-84
2022/12/08 10:19:58;;;;;;;5.68;4.10;;;4.20;99.90;;;;;;5031087;28;20471;-84
2022/12/08 10:22:30;;;;;;;6.80;4.75;;;4.30;99.90;;;;;;5000836;28;20614;-83
2022/12/08 10:25:19;;;;;;;5.47;4.43;;;4.30;99.90;;;;;;5001126;28;20033;-83
2022/12/08 10:27:52;;;;;;;5.50;4.35;;;4.30;99.90;;;;;;5018868;28;20500;-83
2022/12/08 10:30:20;;;;;;;5.53;4.43;;;4.30;99.90;;;;;;5030450;28;20038;-83
2022/12/08 10:32:49;;;;;;;5.57;3.30;;;4.40;99.90;;;;;;5045577;28;20589;-82
2022/12/08 10:35:18;;;;;;;4.82;4.03;;;4.40;99.90;;;;;;4993339;28;20522;-82
2022/12/08 10:38:05;;;;;;;6.85;3.70;;;4.40;99.90;;;;;;5032712;28;20033;-83
2022/12/08 10:40:36;;;;;;;4.53;3.90;;;4.40;99.90;;;;;;5024617;28;20226;-82
2022/12/08 10:43:04;;;;;;;6.47;5.20;;;4.30;99.90;;;;;;5023925;28;20037;-82
2022/12/08 10:45:40;;;;;;;5.40;4.03;;;4.40;99.90;;;;;;5030074;28;20047;-83
2022/12/08 10:48:25;;;;;;;3.75;3.08;;;4.30;99.90;;;;;;5007429;28;20037;-82
2022/12/08 10:50:51;;;;;;;4.65;4.13;;;4.30;99.90;;;;;;5024711;28;20048;-82
2022/12/08 10:53:32;;;;;;;6.30;5.65;;;4.40;99.90;;;;;;5025517;28;20026;-82
2022/12/08 10:56:01;;;;;;;6.72;5.93;;;4.40;99.90;;;;;;5024295;28;20037;-81
2022/12/08 10:58:32;;;;;;;8.68;5.30;;;4.40;99.90;;;;;;5023395;28;20522;-83
2022/12/08 11:01:10;;;;;;;7.28;4.63;;;4.40;99.90;;;;;;5034898;28;20424;-82
2022/12/08 11:03:42;;;;;;;5.10;4.60;;;4.40;99.90;;;;;;5021112;28;20076;-82
2022/12/08 11:06:16;;;;;;;5.80;4.63;;;4.40;99.90;;;;;;5019108;28;20046;-82
2022/12/08 11:08:58;;;;;;;4.50;3.95;;;4.50;99.90;;;;;;5024826;28;20499;-81
2022/12/08 11:11:58;;;;;;;3.65;3.35;;;4.50;99.90;;;;;;5005583;28;20025;-81
2022/12/08 11:14:44;;;;;;;5.35;4.55;;;4.50;99.90;;;;;;4973496;28;20049;-81
2022/12/08 11:17:15;;;;;;;4.75;3.85;;;4.50;99.90;;;;;;5022919;28;20050;-81
2022/12/08 11:20:01;;;;;;;4.47;3.85;;;4.50;99.90;;;;;;5020702;28;20029;-81
2022/12/08 11:22:36;;;;;;;3.92;2.75;;;4.50;99.90;;;;;;5038651;28;20044;-82
2022/12/08 11:25:02;;;;;;;5.95;4.20;;;4.50;99.90;;;;;;5043750;28;20043;-80
2022/12/08 11:27:31;;;;;;;3.28;2.95;;;4.50;99.90;;;;;;5025811;28;20049;-81
2022/12/08 11:29:59;;;;;;;5.00;3.90;;;4.60;99.90;;;;;;5040060;28;20033;-81
2022/12/08 11:32:25;;;;;;;5.68;5.05;;;4.60;99.90;;;;;;5014088;28;20040;-80
2022/12/08 11:35:02;;;;;;;6.88;5.68;;;4.60;99.90;;;;;;5024382;28;20041;-81
2022/12/08 11:37:34;;;;;;;5.15;4.55;;;4.60;99.90;;;;;;5017437;28;20045;-81
2022/12/08 11:40:23;;;;;;;5.43;4.93;;;4.70;99.90;;;;;;5033569;28;20037;-81
2022/12/08 11:43:01;;;;;;;6.18;5.57;;;4.70;99.90;;;;;;5042686;28;20060;-81
2022/12/08 11:45:32;;;;;;;9.10;6.10;;;4.70;99.90;;;;;;5025973;28;20040;-82
2022/12/08 11:48:31;;;;;;;7.30;6.22;;;4.70;99.90;;;;;;5008514;28;20032;-81
2022/12/08 11:51:23;;;;;;;6.25;5.53;;;4.70;99.90;;;;;;5005560;28;20049;-81
2022/12/08 11:54:12;;;;;;;7.28;5.95;;;4.70;99.90;;;;;;5002742;28;20527;-81
2022/12/08 11:56:50;;;;;;;5.72;5.20;;;4.70;99.90;;;;;;5033768;28;20029;-81
2022/12/08 11:59:30;;;;;;;6.60;5.90;;;4.70;99.90;;;;;;5031319;28;20484;-81
2022/12/08 12:01:59;;;;;;;7.82;7.13;;;4.70;99.90;;;;;;5025957;28;20032;-81
2022/12/08 12:04:34;;;;;;;6.70;5.78;;;4.70;99.90;;;;;;4994250;28;20045;-82
2022/12/08 12:07:19;;;;;;;6.55;5.88;;;4.70;99.90;;;;;;5034526;28;20040;-82
2022/12/08 12:10:04;;;;;;;7.28;6.55;;;4.70;99.90;;;;;;5025905;28;20037;-83
2022/12/08 12:13:03;;;;;;;10.35;6.68;;;4.70;99.90;;;;;;5008217;28;20037;-82
2022/12/08 12:16:11;;;;;;;8.45;6.78;;;4.70;99.90;;;;;;4980381;28;20418;-81
2022/12/08 12:18:46;;;;;;;9.20;7.72;;;4.70;99.90;;;;;;5008601;28;20046;-83
2022/12/08 12:21:17;;;;;;;6.60;5.15;;;4.70;99.90;;;;;;5027879;28;20048;-84
2022/12/08 12:23:46;;;;;;;4.78;4.28;;;4.60;99.90;;;;;;5041705;28;20029;-84
2022/12/08 12:26:20;;;;;;;5.80;3.28;;;4.60;99.90;;;;;;5017557;28;20037;-83
2022/12/08 12:28:59;;;;;;;7.80;4.78;;;4.60;99.90;;;;;;5040455;28;20280;-81
2022/12/08 12:31:40;;;;;;;5.38;4.05;;;4.50;99.90;;;;;;5029568;28;20033;-81
2022/12/08 12:34:25;;;;;;;6.13;4.03;;;4.50;99.90;;;;;;5028689;28;20041;-81
2022/12/08 12:37:22;;;;;;;6.97;2.97;;;4.50;99.90;;;;;;5022012;28;20392;-80
2022/12/08 12:39:52;;;;;;;4.55;3.35;;;4.50;99.90;;;;;;5001431;28;20041;-81
2022/12/08 12:42:36;;;;;;;5.57;3.03;;;4.50;99.90;;;;;;5006329;28;20120;-81
2022/12/08 12:45:31;;;;;;;4.22;2.90;;;4.60;99.90;;;;;;5034488;28;20508;-82
2022/12/08 12:47:58;;;;;;;4.82;2.42;;;4.60;99.90;;;;;;5006090;28;20080;-80
2022/12/08 12:50:46;;;;;;;4.32;3.47;;;4.60;99.90;;;;;;5026740;28;20033;-82
2022/12/08 12:53:15;;;;;;;4.03;3.17;;;4.70;99.90;;;;;;5039918;28;20061;-82
2022/12/08 12:55:44;;;;;;;4.22;3.08;;;4.70;99.90;;;;;;5025429;28;20030;-81
2022/12/08 12:58:31;;;;;;;3.67;2.92;;;4.70;99.90;;;;;;5010119;28;20037;-82
2022/12/08 13:01:12;;;;;;;5.03;2.97;;;4.70;99.90;;;;;;5021369;28;20046;-82
2022/12/08 13:04:01;;;;;;;3.22;2.47;;;4.80;99.90;;;;;;5031407;28;20033;-81
2022/12/08 13:06:44;;;;;;;3.83;2.90;;;4.80;99.90;;;;;;5025220;28;20113;-81
2022/12/08 13:09:27;;;;;;;;;;;4.80;99.90;;;;;;5021337;28;20037;-81
2022/12/08 13:11:57;;;;;;;5.25;1.92;;;4.70;99.90;;;;;;5037068;28;19923;-82
2022/12/08 13:14:36;;;;;;;1.60;1.00;;;4.70;99.90;;;;;;5024756;28;20159;-81
2022/12/08 13:17:10;;;;;;;2.15;1.02;;;4.70;99.90;;;;;;5041384;28;20091;-82